Weather at Hohenthann Airfield

Public forecast

Using degrees Celsius for public forecast. Weather courtesy of forecast.io.

Closest aviation weather report (METAR) to Hohenthann Airfield

Closest report is Ingolstadt Manching Airport, 20.8 nm (38.6 km) W.

2024/03/03 08:20 (retrieved 31 minutes ago)

ETSI 030820Z AUTO 07007KT //// // ////// 06/04 Q1001 ///

Closest aviation forecast (TAF) to Hohenthann Airfield

Closest forecast is Munich Airport, 21.5 nm (39.8 km) SSW.

2024/03/03 06:27 (retrieved 2 hours ago)

TAF EDDM 030500Z 0306/0412 07005KT 0700 FG NSC TEMPO 0306/0307 0300 FZFG BECMG 0307/0309 9999 BECMG 0310/0312 11010KT BECMG 0316/0318 10005KT BECMG 0320/0322 VRB02KT PROB30 TEMPO 0402/0406 1200 BCFG BECMG 0405/0407 25005KT BECMG 0407/0409 27010KT TEMPO 0407/0410 BKN008